createdAt,value
2023-05-08T00:03:34.087Z,100076.88
2023-05-08T00:08:36.117Z,100062.81
2023-05-08T00:13:37.832Z,100011.19
2023-05-08T00:18:39.770Z,100060.44
2023-05-08T00:23:41.558Z,100063.59
2023-05-08T00:28:43.211Z,100019.03
2023-05-08T00:33:44.794Z,100091.41
2023-05-08T00:38:46.360Z,100011.06
2023-05-08T00:43:48.048Z,100086.69
2023-05-08T00:48:49.796Z,100007.44
2023-05-08T00:53:51.559Z,100008.22
2023-05-08T00:58:54.077Z,99961.19
2023-05-08T01:03:56.206Z,99987.94
2023-05-08T01:08:58.157Z,100003.69
2023-05-08T01:14:17.622Z,99929.94
2023-05-08T01:20:00.798Z,99998.84
2023-05-08T01:25:21.211Z,99999.00
2023-05-08T01:30:50.656Z,99999.59
2023-05-08T01:35:59.185Z,99999.00
2023-05-08T01:41:10.599Z,99952.63
2023-05-08T01:46:18.806Z,99928.53
2023-05-08T01:51:25.492Z,100011.13
2023-05-08T01:56:30.059Z,99937.84
2023-05-08T02:01:34.496Z,99947.25
2023-05-08T02:06:38.782Z,99984.34
2023-05-08T02:11:44.283Z,99963.06
2023-05-08T02:16:47.860Z,100004.22
2023-05-08T02:21:52.163Z,100002.88
2023-05-08T02:26:56.243Z,100002.00
2023-05-08T02:32:00.570Z,99983.22
2023-05-08T02:37:03.302Z,99999.22
2023-05-08T02:42:05.048Z,99953.63
2023-05-08T02:47:23.763Z,100036.84
2023-05-08T02:52:30.883Z,100053.81
2023-05-08T02:57:57.412Z,100016.16
2023-05-08T03:03:13.665Z,99953.50
2023-05-08T03:08:18.650Z,99996.72
2023-05-08T03:13:21.448Z,100007.59
2023-05-08T03:18:32.364Z,100021.75
2023-05-08T03:23:37.065Z,100048.50
2023-05-08T03:28:40.380Z,99979.78
2023-05-08T03:33:43.401Z,99989.81
2023-05-08T03:38:45.384Z,100048.78
2023-05-08T03:43:47.844Z,100018.97
2023-05-08T03:48:50.562Z,100064.19
2023-05-08T03:53:52.145Z,100069.53
2023-05-08T03:59:09.220Z,99998.47
2023-05-08T04:04:17.937Z,100073.75
2023-05-08T04:09:40.465Z,100015.44
2023-05-08T04:14:48.532Z,100036.53
2023-05-08T04:19:55.813Z,99986.88
2023-05-08T04:25:01.263Z,100076.59
2023-05-08T04:30:03.093Z,100045.91
2023-05-08T04:35:05.423Z,100040.81
2023-05-08T04:40:07.862Z,100022.59
2023-05-08T04:45:10.357Z,99987.34
2023-05-08T04:50:12.056Z,100043.16
2023-05-08T04:55:14.025Z,99989.28
2023-05-08T05:00:17.552Z,99981.19
2023-05-08T05:05:19.262Z,100058.88
2023-05-08T05:10:20.938Z,100026.59
2023-05-08T05:15:22.902Z,100000.66
2023-05-08T05:20:24.467Z,100029.59
2023-05-08T05:25:26.108Z,100088.63
2023-05-08T05:30:28.041Z,100063.31
2023-05-08T05:35:29.578Z,100006.25
2023-05-08T05:40:31.399Z,100029.28
2023-05-08T05:45:33.778Z,100055.28
2023-05-08T05:50:35.553Z,100015.03
2023-05-08T05:55:37.247Z,100079.47
2023-05-08T06:00:38.827Z,100064.91
2023-05-08T06:05:41.259Z,100087.19
2023-05-08T06:10:42.836Z,100040.03
2023-05-08T06:15:44.472Z,100029.38
2023-05-08T06:20:46.031Z,100068.88
2023-05-08T06:25:48.125Z,100029.56
2023-05-08T06:30:49.805Z,100076.47
2023-05-08T06:35:51.547Z,100066.72
2023-05-08T06:40:54.049Z,100039.50
2023-05-08T06:45:55.778Z,100068.38
2023-05-08T06:50:57.364Z,100031.34
2023-05-08T06:55:58.974Z,99992.75
2023-05-08T07:01:01.804Z,100005.09
2023-05-08T07:06:03.452Z,100046.53
2023-05-08T07:11:05.520Z,100022.47
2023-05-08T07:16:11.009Z,100048.44
2023-05-08T07:21:13.180Z,100021.75
2023-05-08T07:26:14.767Z,100068.75
2023-05-08T07:31:16.757Z,100050.56
2023-05-08T07:36:18.367Z,100085.66
2023-05-08T07:41:20.178Z,100026.78
2023-05-08T07:46:22.610Z,100052.63
2023-05-08T07:51:24.358Z,100045.41
2023-05-08T07:56:26.037Z,100049.41
2023-05-08T08:01:27.591Z,100065.56
2023-05-08T08:06:29.283Z,100076.09
2023-05-08T08:11:30.945Z,100052.66
2023-05-08T08:16:32.540Z,100074.34
2023-05-08T08:21:34.267Z,100037.25
2023-05-08T08:26:35.912Z,100070.94
2023-05-08T08:31:37.814Z,100076.78
2023-05-08T08:36:39.976Z,100085.53
2023-05-08T08:41:41.732Z,100016.97
2023-05-08T08:46:52.828Z,100073.53
2023-05-08T08:51:59.462Z,100011.03
2023-05-08T08:57:03.465Z,100056.28
2023-05-08T09:02:15.108Z,100057.22
2023-05-08T09:07:17.935Z,100090.91
2023-05-08T09:12:19.478Z,100037.78
2023-05-08T09:17:21.981Z,100032.06
2023-05-08T09:22:24.727Z,100055.94
2023-05-08T09:27:28.235Z,100058.06
2023-05-08T09:32:33.792Z,100063.13
2023-05-08T09:37:39.324Z,100016.47
2023-05-08T09:42:41.065Z,100008.84
2023-05-08T09:47:48.189Z,100031.97
2023-05-08T09:52:50.862Z,100058.09
2023-05-08T09:57:57.798Z,100027.63
2023-05-08T10:03:01.483Z,100056.16
2023-05-08T10:08:29.934Z,100015.78
2023-05-08T10:13:31.517Z,100023.38
2023-05-08T10:18:36.997Z,100045.06
2023-05-08T10:23:39.986Z,100026.28
2023-05-08T10:28:59.326Z,100031.09
2023-05-08T10:34:02.578Z,100082.81
2023-05-08T10:39:05.284Z,100016.16
2023-05-08T10:44:07.796Z,100033.81
2023-05-08T10:49:37.590Z,100078.50
2023-05-08T10:54:39.747Z,100057.84
2023-05-08T10:59:47.872Z,99998.38
2023-05-08T11:06:47.159Z,100076.91
2023-05-08T11:12:18.476Z,100113.44
2023-05-08T11:17:24.565Z,100094.91
2023-05-08T11:22:29.181Z,100093.16
2023-05-08T11:27:33.856Z,100073.13
2023-05-08T11:33:03.188Z,100067.66
2023-05-08T11:38:19.558Z,100098.75
2023-05-08T11:43:33.255Z,100055.03
2023-05-08T11:48:35.813Z,100025.22
2023-05-08T11:53:38.176Z,100086.81
2023-05-08T11:58:39.737Z,100042.91
2023-05-08T12:03:41.417Z,100070.16
2023-05-08T12:08:43.128Z,100025.41
2023-05-08T12:13:51.021Z,100090.31
2023-05-08T12:18:53.585Z,100028.41
2023-05-08T12:23:56.172Z,100070.16
2023-05-08T12:28:57.842Z,100079.84
2023-05-08T12:33:59.738Z,100023.56
2023-05-08T12:39:15.224Z,100022.63
2023-05-08T12:44:24.746Z,100049.16
2023-05-08T12:49:28.877Z,100032.81
2023-05-08T12:54:46.406Z,100084.47
2023-05-08T12:59:49.007Z,100039.22
2023-05-08T13:04:56.664Z,100068.81
2023-05-08T13:10:05.499Z,100068.06
2023-05-08T13:15:07.691Z,100029.25
2023-05-08T13:20:10.167Z,100055.66
2023-05-08T13:25:12.629Z,100035.47
2023-05-08T13:30:15.672Z,100063.25
2023-05-08T13:35:18.485Z,100049.75
2023-05-08T13:40:20.417Z,100012.25
2023-05-08T13:45:22.076Z,100009.75
2023-05-08T13:50:23.691Z,100060.03
2023-05-08T13:55:25.348Z,100019.25
2023-05-08T14:00:28.266Z,100023.28
2023-05-08T14:05:29.932Z,100030.78
2023-05-08T14:10:31.548Z,100019.59
2023-05-08T14:15:37.244Z,100031.81
2023-05-08T14:20:39.440Z,100021.78
2023-05-08T14:25:41.116Z,100017.38
2023-05-08T14:30:42.683Z,99987.44
2023-05-08T14:35:45.673Z,100018.41
2023-05-08T14:40:50.856Z,99973.09
2023-05-08T14:45:52.607Z,100009.47
2023-05-08T14:50:54.253Z,99999.00
2023-05-08T14:55:56.060Z,99988.94
2023-05-08T15:05:28.003Z,100094.06
2023-05-08T15:10:29.717Z,100068.91
2023-05-08T15:15:31.770Z,100071.84
2023-05-08T15:20:33.446Z,100068.41
2023-05-08T15:25:35.158Z,100054.38
2023-05-08T15:30:36.853Z,100090.66
2023-05-08T15:35:38.519Z,100076.41
2023-05-08T15:40:40.231Z,100062.97
2023-05-08T15:45:42.017Z,100101.44
2023-05-08T15:50:43.686Z,100086.19
2023-05-08T15:55:45.317Z,100064.16
2023-05-08T16:00:46.934Z,100040.56
2023-05-08T16:05:48.546Z,100061.47
2023-05-08T16:10:50.268Z,100062.94
2023-05-08T16:15:52.122Z,100081.25
2023-05-08T16:20:53.812Z,100068.91
2023-05-08T16:25:55.444Z,100078.03
2023-05-08T16:30:57.141Z,100061.94
2023-05-08T16:35:58.814Z,100029.78
2023-05-08T16:41:07.375Z,100090.44
2023-05-08T16:46:09.076Z,100058.31
2023-05-08T16:51:10.756Z,100014.75
2023-05-08T16:56:12.364Z,100026.50
2023-05-08T17:01:14.303Z,100067.19
2023-05-08T17:06:16.003Z,100066.06
2023-05-08T17:11:17.685Z,100066.97
2023-05-08T17:16:20.514Z,100114.06
2023-05-08T17:21:22.329Z,100079.38
2023-05-08T17:26:24.196Z,100038.78
2023-05-08T17:31:26.846Z,100055.72
2023-05-08T17:36:28.509Z,100078.63
2023-05-08T17:41:30.347Z,100090.75
2023-05-08T17:46:32.158Z,100122.09
2023-05-08T17:51:33.926Z,100052.91
2023-05-08T17:56:35.654Z,100122.41
2023-05-08T18:01:37.363Z,100100.31
2023-05-08T18:06:39.151Z,100078.56
2023-05-08T18:11:41.355Z,100111.75
2023-05-08T18:16:43.077Z,100101.44
2023-05-08T18:21:44.850Z,100111.09
2023-05-08T18:26:51.889Z,100104.44
2023-05-08T18:31:54.276Z,100079.56
2023-05-08T18:36:57.530Z,100013.28
2023-05-08T18:41:59.835Z,100041.50
2023-05-08T18:47:01.896Z,100052.59
2023-05-08T18:52:03.716Z,100086.81
2023-05-08T18:57:05.561Z,100025.00
2023-05-08T19:02:07.205Z,100083.41
2023-05-08T19:07:08.808Z,100112.50
2023-05-08T19:12:10.590Z,100097.66
2023-05-08T19:17:12.361Z,100079.16
2023-05-08T19:22:13.996Z,100017.38
2023-05-08T19:27:15.712Z,100077.84
2023-05-08T19:32:17.363Z,100095.00
2023-05-08T19:37:18.992Z,100080.22
2023-05-08T19:42:20.782Z,100048.78
2023-05-08T19:47:22.494Z,100063.06
2023-05-08T19:52:24.114Z,100075.19
2023-05-08T19:57:25.711Z,100122.19
2023-05-08T20:02:27.367Z,100037.84
2023-05-08T20:07:29.006Z,100051.66
2023-05-08T20:12:30.612Z,100077.91
2023-05-08T20:17:32.461Z,100094.50
2023-05-08T20:22:34.214Z,100116.75
2023-05-08T20:27:36.083Z,100094.78
2023-05-08T20:32:37.783Z,100097.06
2023-05-08T20:37:46.643Z,100143.19
2023-05-08T20:42:48.269Z,100121.88
2023-05-08T20:47:49.979Z,100112.25
2023-05-08T20:52:51.912Z,100091.19
2023-05-08T20:57:53.644Z,100071.63
2023-05-08T21:02:55.464Z,100097.66
2023-05-08T21:08:02.390Z,100135.69
2023-05-08T21:13:05.561Z,100088.59
2023-05-08T21:18:07.301Z,100117.41
2023-05-08T21:23:08.894Z,100117.47
2023-05-08T21:28:10.624Z,100161.19
2023-05-08T21:33:14.153Z,100146.91
2023-05-08T21:38:15.982Z,100163.22
2023-05-08T21:43:17.613Z,100124.31
2023-05-08T21:48:19.274Z,100104.75
2023-05-08T21:53:20.934Z,100138.91
2023-05-08T21:58:22.585Z,100144.22
2023-05-08T22:03:24.301Z,100111.31
2023-05-08T22:08:26.409Z,100124.59
2023-05-08T22:13:30.517Z,100126.22
2023-05-08T22:18:32.196Z,100156.00
2023-05-08T22:23:34.878Z,100148.84
2023-05-08T22:28:37.453Z,100146.53
2023-05-08T22:33:39.233Z,100108.06
2023-05-08T22:38:40.936Z,100105.56
2023-05-08T22:43:42.869Z,100140.91
2023-05-08T22:48:44.845Z,100167.44
2023-05-08T22:53:47.398Z,100090.84
2023-05-08T22:58:49.005Z,100097.03
2023-05-08T23:03:52.319Z,100098.09
2023-05-08T23:08:53.913Z,100113.63
2023-05-08T23:13:55.584Z,100120.34
2023-05-08T23:18:57.209Z,100063.28
2023-05-08T23:23:59.060Z,100098.72
2023-05-08T23:29:01.013Z,100127.13
2023-05-08T23:34:02.670Z,100104.94
2023-05-08T23:39:04.324Z,100119.03
2023-05-08T23:44:06.164Z,100089.38
2023-05-08T23:49:08.220Z,100088.97
2023-05-08T23:54:09.840Z,100175.25
2023-05-08T23:59:11.549Z,100130.34
